Terminal Aerodrome Forecast
Issued by NWS

Home | Current Version | Previous Version | Text Only | Print | Product List | Glossary On
Versions: 1 2 3 4 5 6 7 8 9 10 11 12 13 14
000
FTUS41 KBTV 012320
TAFMPV
TAF
KMPV 012320Z 0200/0224 23007KT P6SM VCSH BKN080
      TEMPO 0200/0201 5SM -SHRA BKN025 BKN080
     FM020100 24007KT P6SM BKN080
     FM021000 26005KT P6SM SCT150=

USA.gov is the U.S. government's official web portal to all federal, state and local government web resources and services.